createdAt,value
2023-04-03T00:01:03.089Z,11.40
2023-04-03T00:03:29.990Z,10.32
2023-04-03T00:05:57.037Z,10.95
2023-04-03T00:08:24.026Z,10.27
2023-04-03T00:10:51.604Z,9.88
2023-04-03T00:13:18.635Z,10.23
2023-04-03T00:15:46.112Z,9.38
2023-04-03T00:18:12.998Z,10.13
2023-04-03T00:20:40.090Z,9.27
2023-04-03T00:23:07.190Z,10.02
2023-04-03T00:25:34.155Z,9.77
2023-04-03T00:28:01.494Z,9.45
2023-04-03T00:30:28.417Z,10.60
2023-04-03T00:32:55.681Z,9.88
2023-04-03T00:35:23.658Z,10.80
2023-04-03T00:37:53.494Z,10.10
2023-04-03T00:40:21.670Z,11.32
2023-04-03T00:42:52.622Z,10.73
2023-04-03T00:45:19.321Z,11.35
2023-04-03T00:47:46.404Z,11.45
2023-04-03T00:50:13.177Z,11.45
2023-04-03T00:52:40.972Z,11.23
2023-04-03T00:55:09.924Z,11.98
2023-04-03T00:57:37.167Z,10.77
2023-04-03T01:00:11.126Z,11.20
2023-04-03T01:02:38.517Z,10.65
2023-04-03T01:05:05.886Z,9.68
2023-04-03T01:07:34.889Z,9.80
2023-04-03T01:10:06.604Z,10.40
2023-04-03T01:12:46.305Z,11.02
2023-04-03T01:15:24.165Z,10.13
2023-04-03T01:17:57.453Z,10.55
2023-04-03T01:20:33.516Z,10.48
2023-04-03T01:23:21.571Z,9.55
2023-04-03T01:25:54.634Z,10.20
2023-04-03T01:28:27.678Z,9.52
2023-04-03T01:31:06.836Z,9.27
2023-04-03T01:33:34.005Z,10.02
2023-04-03T01:36:01.050Z,9.88
2023-04-03T01:38:28.197Z,10.25
2023-04-03T01:40:55.237Z,9.75
2023-04-03T01:43:22.067Z,9.63
2023-04-03T01:45:50.393Z,8.95
2023-04-03T01:48:17.828Z,9.85
2023-04-03T01:50:44.673Z,10.38
2023-04-03T01:53:11.600Z,8.82
2023-04-03T01:55:38.360Z,10.90
2023-04-03T01:58:05.657Z,9.23
2023-04-03T02:00:32.468Z,10.50
2023-04-03T02:02:59.422Z,10.02
2023-04-03T02:05:26.465Z,10.05
2023-04-03T02:07:53.205Z,9.50
2023-04-03T02:10:20.000Z,9.35
2023-04-03T02:12:47.039Z,10.35
2023-04-03T02:15:13.914Z,10.07
2023-04-03T02:17:40.828Z,11.23
2023-04-03T02:20:08.433Z,11.02
2023-04-03T02:22:35.695Z,11.50
2023-04-03T02:25:03.029Z,11.25
2023-04-03T02:27:30.060Z,11.63
2023-04-03T02:29:56.864Z,11.95
2023-04-03T02:32:23.774Z,12.80
2023-04-03T02:34:50.804Z,11.95
2023-04-03T02:37:17.648Z,13.77
2023-04-03T02:39:44.401Z,12.07
2023-04-03T02:42:11.500Z,13.52
2023-04-03T02:44:38.308Z,13.98
2023-04-03T02:47:05.307Z,12.82
2023-04-03T02:49:32.756Z,13.13
2023-04-03T02:51:59.662Z,13.32
2023-04-03T02:54:29.678Z,12.00
2023-04-03T02:56:56.425Z,12.30
2023-04-03T02:59:23.183Z,11.57
2023-04-03T03:01:49.988Z,12.05
2023-04-03T03:04:17.099Z,10.77
2023-04-03T03:06:44.962Z,11.45
2023-04-03T03:09:11.889Z,11.40
2023-04-03T03:11:38.642Z,11.13
2023-04-03T03:14:05.455Z,11.43
2023-04-03T03:16:32.471Z,13.10
2023-04-03T03:18:59.319Z,13.20
2023-04-03T03:21:26.298Z,10.85
2023-04-03T03:23:53.058Z,11.18
2023-04-03T03:26:19.837Z,10.63
2023-04-03T03:28:46.688Z,12.30
2023-04-03T03:31:13.601Z,11.63
2023-04-03T03:33:40.510Z,12.77
2023-04-03T03:36:07.670Z,12.40
2023-04-03T03:38:34.445Z,12.23
2023-04-03T03:41:01.339Z,13.30
2023-04-03T03:43:28.987Z,12.65
2023-04-03T03:45:56.055Z,13.40
2023-04-03T03:48:23.341Z,13.65
2023-04-03T03:50:51.114Z,13.50
2023-04-03T03:53:18.130Z,14.85
2023-04-03T03:55:44.908Z,14.43
2023-04-03T03:58:11.795Z,15.45
2023-04-03T04:00:38.829Z,14.80
2023-04-03T04:03:05.943Z,16.40
2023-04-03T04:05:33.109Z,16.08
2023-04-03T04:08:00.054Z,15.95
2023-04-03T04:10:26.966Z,14.93
2023-04-03T04:12:53.788Z,15.48
2023-04-03T04:15:22.520Z,14.88
2023-04-03T04:17:49.443Z,13.32
2023-04-03T04:20:16.412Z,14.10
2023-04-03T04:22:43.231Z,12.18
2023-04-03T04:25:10.895Z,13.45
2023-04-03T04:27:38.138Z,13.40
2023-04-03T04:30:05.740Z,13.63
2023-04-03T04:32:32.582Z,13.98
2023-04-03T04:34:59.450Z,14.85
2023-04-03T04:37:26.253Z,14.65
2023-04-03T04:39:53.084Z,14.50
2023-04-03T04:42:19.927Z,13.68
2023-04-03T04:44:46.670Z,13.75
2023-04-03T04:47:13.536Z,13.25
2023-04-03T04:49:40.313Z,12.65
2023-04-03T04:52:07.432Z,14.85
2023-04-03T04:54:34.352Z,13.88
2023-04-03T04:57:01.326Z,14.38
2023-04-03T04:59:28.265Z,14.38
2023-04-03T05:01:55.784Z,14.40
2023-04-03T05:04:22.786Z,13.82
2023-04-03T05:06:49.646Z,14.18
2023-04-03T05:09:16.584Z,15.32
2023-04-03T05:11:44.073Z,14.18
2023-04-03T05:14:11.074Z,13.48
2023-04-03T05:16:37.862Z,13.02
2023-04-03T05:19:05.165Z,14.40
2023-04-03T05:21:33.511Z,13.77
2023-04-03T05:24:03.641Z,14.15
2023-04-03T05:26:31.927Z,14.27
2023-04-03T05:28:58.761Z,14.45
2023-04-03T05:31:25.674Z,14.05
2023-04-03T05:33:52.513Z,13.10
2023-04-03T05:36:19.836Z,13.55
2023-04-03T05:38:46.837Z,14.20
2023-04-03T05:41:14.865Z,13.30
2023-04-03T05:43:41.809Z,13.85
2023-04-03T05:46:18.189Z,13.82
2023-04-03T05:48:45.462Z,14.07
2023-04-03T05:51:22.309Z,14.45
2023-04-03T05:53:51.394Z,14.88
2023-04-03T05:56:18.206Z,14.63
2023-04-03T05:58:45.009Z,16.05
2023-04-03T06:01:12.684Z,14.10
2023-04-03T06:03:41.116Z,14.25
2023-04-03T06:06:09.088Z,14.45
2023-04-03T06:08:36.113Z,14.90
2023-04-03T06:11:03.529Z,14.23
2023-04-03T06:13:30.535Z,13.75
2023-04-03T06:15:58.165Z,13.88
2023-04-03T06:18:25.108Z,13.43
2023-04-03T06:20:51.908Z,14.43
2023-04-03T06:23:19.236Z,13.00
2023-04-03T06:25:46.039Z,12.85
2023-04-03T06:28:12.884Z,13.65
2023-04-03T06:30:40.158Z,14.27
2023-04-03T06:33:07.763Z,13.48
2023-04-03T06:35:36.077Z,13.10
2023-04-03T06:38:05.486Z,12.70
2023-04-03T06:40:32.421Z,13.57
2023-04-03T06:42:59.446Z,12.15
2023-04-03T06:45:26.617Z,13.27
2023-04-03T06:47:53.497Z,12.98
2023-04-03T06:50:22.202Z,12.77
2023-04-03T06:52:49.117Z,12.95
2023-04-03T06:55:15.986Z,12.65
2023-04-03T06:57:42.727Z,13.80
2023-04-03T07:00:11.130Z,14.63
2023-04-03T07:02:41.471Z,13.50
2023-04-03T07:05:10.169Z,12.95
2023-04-03T07:07:37.013Z,12.02
2023-04-03T07:10:04.133Z,13.27
2023-04-03T07:12:30.992Z,13.68
2023-04-03T07:14:57.868Z,13.13
2023-04-03T07:17:24.748Z,13.50
2023-04-03T07:19:51.705Z,14.00
2023-04-03T07:22:18.998Z,12.93
2023-04-03T07:24:46.326Z,13.07
2023-04-03T07:27:13.770Z,12.80
2023-04-03T07:29:41.113Z,12.80
2023-04-03T07:32:08.212Z,12.80
2023-04-03T07:34:35.068Z,11.75
2023-04-03T07:37:02.199Z,11.48
2023-04-03T07:39:29.382Z,12.57
2023-04-03T07:41:59.221Z,11.60
2023-04-03T07:44:26.449Z,12.02
2023-04-03T07:46:53.516Z,13.55
2023-04-03T07:49:20.399Z,14.40
2023-04-03T07:51:47.737Z,15.70
2023-04-03T07:54:14.586Z,15.18
2023-04-03T07:56:41.478Z,14.70
2023-04-03T07:59:08.877Z,14.38
2023-04-03T08:01:35.849Z,14.00
2023-04-03T08:04:02.853Z,13.73
2023-04-03T08:06:45.670Z,13.48
2023-04-03T08:09:15.381Z,13.20
2023-04-03T08:11:42.709Z,14.07
2023-04-03T08:14:12.023Z,13.75
2023-04-03T08:16:38.960Z,15.32
2023-04-03T08:19:09.574Z,14.27
2023-04-03T08:21:40.611Z,13.07
2023-04-03T08:24:07.528Z,13.55
2023-04-03T08:26:34.315Z,12.10
2023-04-03T08:29:01.265Z,13.52
2023-04-03T08:31:28.728Z,12.82
2023-04-03T08:33:55.614Z,12.85
2023-04-03T08:36:25.652Z,11.57
2023-04-03T08:38:52.886Z,11.57
2023-04-03T08:41:41.427Z,11.07
2023-04-03T08:44:50.955Z,11.05
2023-04-03T08:47:27.204Z,9.88
2023-04-03T08:50:31.008Z,11.50
2023-04-03T08:52:59.921Z,9.07
2023-04-03T08:55:30.097Z,9.60
2023-04-03T08:58:04.322Z,10.20
2023-04-03T09:01:00.766Z,9.82
2023-04-03T09:03:38.867Z,9.73
2023-04-03T09:06:14.836Z,11.18
2023-04-03T09:08:45.505Z,10.35
2023-04-03T09:11:39.984Z,10.27
2023-04-03T09:14:28.228Z,10.05
2023-04-03T09:17:01.499Z,10.05
2023-04-03T09:19:45.172Z,10.18
2023-04-03T09:22:22.614Z,9.85
2023-04-03T09:24:59.579Z,9.88
2023-04-03T09:27:26.637Z,9.88
2023-04-03T09:29:56.209Z,9.93
2023-04-03T09:32:31.757Z,9.65
2023-04-03T09:35:16.901Z,9.20
2023-04-03T09:37:49.712Z,14.77
2023-04-03T09:40:39.871Z,11.57
2023-04-03T09:43:26.466Z,9.23
2023-04-03T09:48:22.715Z,10.27
2023-04-03T09:51:00.026Z,11.18
2023-04-03T09:53:38.213Z,10.88
2023-04-03T09:56:27.852Z,10.82
2023-04-03T09:59:00.670Z,9.73
2023-04-03T10:01:58.317Z,9.65
2023-04-03T10:04:25.504Z,9.02
2023-04-03T10:06:54.991Z,9.00
2023-04-03T10:09:21.878Z,8.57
2023-04-03T10:12:10.936Z,8.32
2023-04-03T10:14:41.528Z,7.97
2023-04-03T10:17:26.875Z,8.27
2023-04-03T10:19:59.202Z,8.13
2023-04-03T10:23:03.257Z,7.68
2023-04-03T10:25:39.693Z,8.23
2023-04-03T10:28:35.493Z,8.15
2023-04-03T10:31:15.518Z,9.07
2023-04-03T10:34:26.937Z,8.23
2023-04-03T10:37:22.813Z,8.45
2023-04-03T10:40:10.054Z,7.93
2023-04-03T10:42:59.577Z,7.60
2023-04-03T10:45:35.617Z,7.22
2023-04-03T10:48:24.841Z,7.80
2023-04-03T10:51:17.360Z,8.25
2023-04-03T10:54:17.852Z,8.27
2023-04-03T10:57:11.523Z,8.88
2023-04-03T10:59:46.476Z,9.98
2023-04-03T11:02:31.106Z,8.77
2023-04-03T11:05:15.878Z,10.73
2023-04-03T11:07:48.914Z,12.63
2023-04-03T11:10:30.489Z,9.00
2023-04-03T11:13:16.954Z,8.25
2023-04-03T11:15:47.532Z,7.97
2023-04-03T11:18:36.961Z,8.18
2023-04-03T11:21:17.337Z,9.32
2023-04-03T11:23:49.976Z,9.60
2023-04-03T11:26:19.832Z,8.55
2023-04-03T11:28:47.378Z,7.72
2023-04-03T11:31:46.671Z,7.63
2023-04-03T11:34:39.330Z,8.00
2023-04-03T11:37:14.255Z,6.88
2023-04-03T11:39:48.943Z,7.83
2023-04-03T11:42:17.372Z,8.15
2023-04-03T11:44:44.451Z,7.72
2023-04-03T11:47:13.302Z,6.93
2023-04-03T11:50:02.207Z,7.90
2023-04-03T11:52:44.162Z,6.55
2023-04-03T11:55:23.700Z,6.88
2023-04-03T11:57:59.499Z,7.22
2023-04-03T12:00:45.007Z,7.00
2023-04-03T12:03:27.033Z,6.65
2023-04-03T12:05:59.726Z,8.02
2023-04-03T12:08:33.524Z,6.82
2023-04-03T12:11:17.569Z,6.03
2023-04-03T12:14:06.908Z,6.38
2023-04-03T12:16:39.991Z,7.63
2023-04-03T12:19:16.160Z,6.78
2023-04-03T12:22:04.665Z,7.30
2023-04-03T12:24:33.115Z,7.93
2023-04-03T12:27:05.872Z,8.68
2023-04-03T12:29:35.551Z,8.15
2023-04-03T12:32:02.324Z,7.93
2023-04-03T12:34:43.385Z,7.85
2023-04-03T12:37:25.847Z,7.93
2023-04-03T12:40:16.094Z,7.75
2023-04-03T12:42:45.902Z,8.18
2023-04-03T12:45:20.567Z,8.15
2023-04-03T12:47:51.720Z,8.40
2023-04-03T12:50:24.956Z,8.35
2023-04-03T12:53:18.212Z,7.95
2023-04-03T12:55:45.144Z,8.00
2023-04-03T12:58:23.897Z,8.10
2023-04-03T13:01:10.928Z,7.95
2023-04-03T13:03:41.313Z,8.98
2023-04-03T13:06:08.175Z,8.80
2023-04-03T13:08:35.009Z,7.10
2023-04-03T13:11:12.514Z,7.07
2023-04-03T13:13:40.418Z,6.75
2023-04-03T13:16:14.331Z,7.50
2023-04-03T13:18:42.019Z,8.02
2023-04-03T13:21:17.765Z,7.63
2023-04-03T13:23:49.208Z,8.38
2023-04-03T13:26:20.612Z,7.28
2023-04-03T13:28:48.391Z,7.05
2023-04-03T13:31:15.323Z,7.15
2023-04-03T13:34:11.874Z,6.50
2023-04-03T13:36:47.048Z,6.90
2023-04-03T13:39:16.844Z,6.00
2023-04-03T13:41:50.168Z,7.22
2023-04-03T13:44:23.213Z,6.50
2023-04-03T13:47:11.336Z,7.05
2023-04-03T13:49:43.084Z,6.00
2023-04-03T13:52:36.686Z,5.95
2023-04-03T13:55:27.094Z,6.35
2023-04-03T13:58:01.667Z,6.20
2023-04-03T14:00:30.524Z,5.68
2023-04-03T14:02:58.686Z,5.32
2023-04-03T14:05:26.628Z,5.20
2023-04-03T14:07:55.532Z,5.30
2023-04-03T14:10:22.644Z,5.28
2023-04-03T14:12:51.719Z,4.63
2023-04-03T14:15:20.624Z,4.80
2023-04-03T14:17:48.055Z,5.20
2023-04-03T14:20:19.923Z,4.70
2023-04-03T14:22:47.356Z,4.55
2023-04-03T14:25:14.246Z,4.70
2023-04-03T14:27:46.648Z,5.80
2023-04-03T14:30:21.125Z,5.38
2023-04-03T14:32:48.480Z,5.85
2023-04-03T14:35:16.893Z,6.75
2023-04-03T14:37:44.833Z,8.65
2023-04-03T14:40:16.255Z,7.82
2023-04-03T14:42:43.404Z,7.47
2023-04-03T14:45:13.079Z,7.57
2023-04-03T14:47:49.480Z,5.85
2023-04-03T14:50:22.064Z,5.32
2023-04-03T14:52:50.550Z,4.55
2023-04-03T14:55:19.012Z,4.97
2023-04-03T14:57:45.972Z,4.50
2023-04-03T15:00:18.879Z,4.00
2023-04-03T15:02:47.172Z,3.90
2023-04-03T15:05:15.004Z,3.60
2023-04-03T15:07:53.719Z,3.45
2023-04-03T15:10:20.538Z,4.35
2023-04-03T15:12:48.745Z,3.67
2023-04-03T15:15:17.608Z,3.05
2023-04-03T15:17:46.196Z,4.43
2023-04-03T15:20:16.615Z,4.10
2023-04-03T15:22:44.256Z,4.18
2023-04-03T15:25:11.534Z,4.30
2023-04-03T15:27:39.515Z,5.28
2023-04-03T15:30:08.804Z,4.30
2023-04-03T15:32:36.353Z,3.45
2023-04-03T15:35:04.254Z,3.33
2023-04-03T15:37:31.132Z,3.30
2023-04-03T15:39:58.232Z,3.28
2023-04-03T15:42:24.980Z,3.97
2023-04-03T15:44:52.759Z,4.03
2023-04-03T15:47:19.727Z,3.50
2023-04-03T15:49:46.711Z,3.40
2023-04-03T15:52:13.603Z,5.00
2023-04-03T15:54:40.452Z,12.90
2023-04-03T15:57:07.388Z,17.08
2023-04-03T15:59:34.311Z,11.85
2023-04-03T16:02:04.762Z,9.50
2023-04-03T16:04:31.918Z,7.40
2023-04-03T16:07:01.738Z,4.93
2023-04-03T16:09:28.560Z,5.88
2023-04-03T16:11:55.727Z,11.57
2023-04-03T16:14:22.648Z,11.98
2023-04-03T16:16:49.591Z,14.13
2023-04-03T16:19:16.621Z,9.13
2023-04-03T16:21:43.584Z,3.97
2023-04-03T16:24:10.648Z,3.20
2023-04-03T16:26:37.489Z,3.70
2023-04-03T16:29:04.443Z,5.50
2023-04-03T16:31:33.700Z,10.15
2023-04-03T16:34:02.413Z,10.55
2023-04-03T16:36:32.345Z,5.47
2023-04-03T16:38:59.198Z,4.20
2023-04-03T16:41:26.055Z,5.80
2023-04-03T16:43:52.978Z,6.03
2023-04-03T16:46:19.903Z,8.52
2023-04-03T16:48:46.922Z,8.23
2023-04-03T16:51:14.447Z,6.35
2023-04-03T16:53:44.191Z,4.10
2023-04-03T16:56:11.292Z,4.38
2023-04-03T16:58:38.080Z,3.70
2023-04-03T17:01:14.036Z,4.43
2023-04-03T17:06:09.199Z,5.13
2023-04-03T17:08:36.176Z,5.53
2023-04-03T17:11:15.625Z,4.55
2023-04-03T17:13:42.570Z,3.25
2023-04-03T17:16:13.771Z,2.92
2023-04-03T17:18:41.701Z,3.88
2023-04-03T17:21:09.026Z,4.72
2023-04-03T17:23:37.312Z,4.70
2023-04-03T17:26:05.027Z,4.60
2023-04-03T17:28:32.393Z,4.60
2023-04-03T17:31:01.802Z,5.55
2023-04-03T17:33:31.220Z,8.20
2023-04-03T17:35:59.586Z,7.53
2023-04-03T17:38:26.433Z,7.05
2023-04-03T17:40:57.730Z,5.88
2023-04-03T17:43:24.997Z,5.05
2023-04-03T17:45:52.299Z,4.60
2023-04-03T17:48:19.736Z,4.13
2023-04-03T17:50:46.796Z,4.78
2023-04-03T17:53:15.160Z,4.65
2023-04-03T17:55:41.975Z,4.60
2023-04-03T17:58:08.838Z,3.95
2023-04-03T18:00:37.179Z,3.90
2023-04-03T18:03:04.861Z,3.92
2023-04-03T18:05:31.960Z,3.50
2023-04-03T18:08:01.092Z,3.95
2023-04-03T18:10:28.698Z,4.20
2023-04-03T18:12:55.900Z,3.72
2023-04-03T18:15:26.094Z,4.10
2023-04-03T18:17:58.029Z,4.60
2023-04-03T18:20:25.314Z,4.78
2023-04-03T18:22:52.702Z,4.30
2023-04-03T18:25:19.851Z,4.65
2023-04-03T18:27:48.010Z,4.20
2023-04-03T18:30:17.616Z,5.03
2023-04-03T18:32:44.819Z,4.88
2023-04-03T18:35:11.929Z,5.10
2023-04-03T18:37:38.851Z,5.25
2023-04-03T18:40:06.507Z,5.22
2023-04-03T18:42:33.468Z,5.25
2023-04-03T18:45:05.880Z,5.28
2023-04-03T18:47:33.421Z,5.68
2023-04-03T18:50:00.350Z,5.53
2023-04-03T18:52:27.335Z,5.82
2023-04-03T18:54:54.217Z,5.45
2023-04-03T18:57:21.010Z,5.53
2023-04-03T18:59:47.812Z,6.00
2023-04-03T19:02:18.646Z,6.35
2023-04-03T19:04:47.307Z,6.22
2023-04-03T19:07:14.556Z,7.53
2023-04-03T19:09:41.357Z,5.95
2023-04-03T19:12:08.451Z,6.10
2023-04-03T19:14:35.318Z,6.45
2023-04-03T19:17:04.175Z,6.38
2023-04-03T19:19:31.163Z,6.50
2023-04-03T19:21:58.614Z,6.40
2023-04-03T19:24:25.408Z,6.50
2023-04-03T19:26:52.262Z,6.70
2023-04-03T19:29:19.284Z,7.95
2023-04-03T19:31:46.246Z,6.40
2023-04-03T19:34:13.062Z,5.78
2023-04-03T19:36:40.136Z,5.40
2023-04-03T19:39:07.846Z,6.03
2023-04-03T19:41:37.155Z,5.15
2023-04-03T19:44:07.154Z,5.38
2023-04-03T19:46:35.000Z,5.90
2023-04-03T19:49:01.981Z,5.10
2023-04-03T19:51:28.851Z,5.63
2023-04-03T19:53:56.212Z,4.85
2023-04-03T19:56:23.626Z,5.95
2023-04-03T19:58:56.875Z,5.47
2023-04-03T20:01:24.719Z,4.80
2023-04-03T20:03:51.971Z,5.32
2023-04-03T20:06:19.272Z,5.25
2023-04-03T20:08:46.442Z,5.47
2023-04-03T20:11:14.090Z,6.10
2023-04-03T20:13:40.862Z,7.88
2023-04-03T20:16:08.322Z,6.70
2023-04-03T20:18:35.318Z,6.07
2023-04-03T20:21:04.703Z,6.03
2023-04-03T20:23:34.842Z,5.13
2023-04-03T20:26:11.007Z,5.75
2023-04-03T20:28:42.959Z,4.90
2023-04-03T20:31:12.240Z,5.40
2023-04-03T20:33:44.325Z,4.70
2023-04-03T20:36:11.165Z,4.88
2023-04-03T20:38:38.042Z,5.47
2023-04-03T20:41:05.386Z,6.30
2023-04-03T20:43:32.328Z,7.43
2023-04-03T20:46:03.124Z,7.88
2023-04-03T20:48:31.414Z,6.55
2023-04-03T20:50:58.965Z,6.65
2023-04-03T20:53:27.213Z,6.50
2023-04-03T20:56:01.522Z,5.22
2023-04-03T20:58:35.684Z,5.22
2023-04-03T21:01:02.691Z,5.22
2023-04-03T21:03:30.706Z,5.60
2023-04-03T21:06:01.777Z,7.15
2023-04-03T21:09:06.766Z,6.03
2023-04-03T21:12:11.944Z,10.73
2023-04-03T21:15:18.598Z,10.70
2023-04-03T21:18:09.901Z,10.13
2023-04-03T21:20:37.337Z,8.80
2023-04-03T21:23:05.269Z,9.10
2023-04-03T21:25:32.630Z,9.93
2023-04-03T21:28:00.194Z,10.05
2023-04-03T21:30:27.190Z,9.77
2023-04-03T21:32:54.289Z,10.48
2023-04-03T21:35:21.450Z,8.77
2023-04-03T21:37:48.209Z,8.40
2023-04-03T21:40:15.094Z,8.50
2023-04-03T21:42:41.979Z,7.82
2023-04-03T21:45:09.362Z,7.63
2023-04-03T21:47:36.640Z,7.80
2023-04-03T21:50:03.801Z,7.72
2023-04-03T21:52:30.702Z,8.70
2023-04-03T21:54:57.590Z,7.50
2023-04-03T21:57:24.722Z,8.77
2023-04-03T21:59:51.559Z,7.70
2023-04-03T22:02:18.485Z,7.63
2023-04-03T22:04:47.325Z,7.72
2023-04-03T22:07:14.475Z,6.80
2023-04-03T22:09:41.436Z,6.28
2023-04-03T22:12:11.716Z,6.03
2023-04-03T22:14:39.608Z,5.35
2023-04-03T22:17:07.276Z,6.45
2023-04-03T22:19:34.451Z,5.90
2023-04-03T22:22:03.608Z,5.55
2023-04-03T22:24:30.516Z,5.70
2023-04-03T22:26:57.365Z,5.90
2023-04-03T22:29:24.133Z,6.03
2023-04-03T22:31:51.084Z,5.63
2023-04-03T22:34:18.079Z,5.65
2023-04-03T22:36:44.952Z,5.78
2023-04-03T22:39:13.380Z,6.35
2023-04-03T22:41:40.203Z,5.57
2023-04-03T22:44:07.179Z,5.57
2023-04-03T22:46:33.923Z,5.38
2023-04-03T22:49:00.755Z,5.78
2023-04-03T22:51:27.640Z,5.47
2023-04-03T22:53:54.428Z,5.03
2023-04-03T22:56:23.941Z,5.47
2023-04-03T22:58:52.323Z,5.60
2023-04-03T23:01:20.229Z,5.40
2023-04-03T23:03:47.091Z,5.22
2023-04-03T23:06:14.109Z,6.00
2023-04-03T23:08:42.097Z,5.32
2023-04-03T23:11:09.783Z,4.90
2023-04-03T23:13:37.194Z,5.75
2023-04-03T23:16:04.773Z,5.13
2023-04-03T23:18:32.921Z,5.32
2023-04-03T23:21:00.734Z,5.78
2023-04-03T23:23:27.781Z,4.80
2023-04-03T23:25:54.991Z,5.18
2023-04-03T23:28:21.838Z,5.20
2023-04-03T23:30:48.921Z,5.90
2023-04-03T23:33:16.021Z,6.35
2023-04-03T23:35:48.959Z,5.30
2023-04-03T23:38:16.204Z,5.22
2023-04-03T23:40:43.749Z,5.68
2023-04-03T23:43:11.196Z,5.82
2023-04-03T23:45:38.498Z,5.03
2023-04-03T23:48:05.505Z,5.18
2023-04-03T23:50:32.401Z,4.45
2023-04-03T23:52:59.221Z,4.22
2023-04-03T23:55:26.206Z,4.63
2023-04-03T23:57:53.059Z,5.00
